sensor_id;sensor_type;location;lat;lon;timestamp;temperature;humidity
72206;DHT22;60111;48.286;7.812;2024-01-15T00:02:11;-3.30;85.00
72206;DHT22;60111;48.286;7.812;2024-01-15T00:04:44;-3.30;85.00
72206;DHT22;60111;48.286;7.812;2024-01-15T00:07:16;-3.20;85.00
72206;DHT22;60111;48.286;7.812;2024-01-15T00:09:49;-3.20;84.70
72206;DHT22;60111;48.286;7.812;2024-01-15T00:12:21;-3.20;84.70
72206;DHT22;60111;48.286;7.812;2024-01-15T00:14:54;-3.10;84.90
72206;DHT22;60111;48.286;7.812;2024-01-15T00:17:27;-3.00;84.70
72206;DHT22;60111;48.286;7.812;2024-01-15T00:19:59;-3.00;84.70
72206;DHT22;60111;48.286;7.812;2024-01-15T00:22:32;-2.90;84.80
72206;DHT22;60111;48.286;7.812;2024-01-15T00:25:06;-2.70;84.30
72206;DHT22;60111;48.286;7.812;2024-01-15T00:27:39;-2.60;83.50
72206;DHT22;60111;48.286;7.812;2024-01-15T00:30:12;-2.70;83.50
72206;DHT22;60111;48.286;7.812;2024-01-15T00:32:45;-2.60;83.70
72206;DHT22;60111;48.286;7.812;2024-01-15T00:35:17;-2.60;83.80
72206;DHT22;60111;48.286;7.812;2024-01-15T00:37:50;-2.60;83.30
72206;DHT22;60111;48.286;7.812;2024-01-15T00:40:23;-2.50;83.10
72206;DHT22;60111;48.286;7.812;2024-01-15T00:42:57;-2.60;83.20
72206;DHT22;60111;48.286;7.812;2024-01-15T00:45:29;-2.60;83.90
72206;DHT22;60111;48.286;7.812;2024-01-15T00:48:02;-2.50;83.70
72206;DHT22;60111;48.286;7.812;2024-01-15T00:50:35;-2.50;83.50
72206;DHT22;60111;48.286;7.812;2024-01-15T00:53:08;-2.50;83.50
72206;DHT22;60111;48.286;7.812;2024-01-15T00:55:41;-2.40;82.70
72206;DHT22;60111;48.286;7.812;2024-01-15T00:58:13;-2.50;82.40
72206;DHT22;60111;48.286;7.812;2024-01-15T01:00:46;-2.60;82.60
72206;DHT22;60111;48.286;7.812;2024-01-15T01:03:18;-2.70;82.70
72206;DHT22;60111;48.286;7.812;2024-01-15T01:05:51;-2.70;82.70
72206;DHT22;60111;48.286;7.812;2024-01-15T01:08:24;-2.70;82.50
72206;DHT22;60111;48.286;7.812;2024-01-15T01:10:56;-2.80;82.80
72206;DHT22;60111;48.286;7.812;2024-01-15T01:13:29;-2.90;83.40
72206;DHT22;60111;48.286;7.812;2024-01-15T01:16:01;-2.90;83.60
72206;DHT22;60111;48.286;7.812;2024-01-15T01:18:35;-2.80;83.30
72206;DHT22;60111;48.286;7.812;2024-01-15T01:21:08;-3.00;83.60
72206;DHT22;60111;48.286;7.812;2024-01-15T01:23:41;-3.00;84.40
72206;DHT22;60111;48.286;7.812;2024-01-15T01:26:15;-3.00;84.60
72206;DHT22;60111;48.286;7.812;2024-01-15T01:28:47;-3.00;84.80
72206;DHT22;60111;48.286;7.812;2024-01-15T01:31:20;-3.10;85.00
72206;DHT22;60111;48.286;7.812;2024-01-15T01:33:52;-3.00;85.00
72206;DHT22;60111;48.286;7.812;2024-01-15T01:36:25;-3.00;85.10
72206;DHT22;60111;48.286;7.812;2024-01-15T01:38:58;-2.90;84.90
72206;DHT22;60111;48.286;7.812;2024-01-15T01:41:30;-2.90;84.80
72206;DHT22;60111;48.286;7.812;2024-01-15T01:44:03;-2.90;85.00
72206;DHT22;60111;48.286;7.812;2024-01-15T01:46:37;-2.90;85.20
72206;DHT22;60111;48.286;7.812;2024-01-15T01:49:12;-2.90;85.30
72206;DHT22;60111;48.286;7.812;2024-01-15T01:52:05;-2.90;85.50
72206;DHT22;60111;48.286;7.812;2024-01-15T01:54:40;-2.80;85.30
72206;DHT22;60111;48.286;7.812;2024-01-15T01:57:12;-2.90;85.70
72206;DHT22;60111;48.286;7.812;2024-01-15T01:59:46;-2.90;85.80
72206;DHT22;60111;48.286;7.812;2024-01-15T02:02:20;-2.90;85.90
72206;DHT22;60111;48.286;7.812;2024-01-15T02:04:53;-2.90;85.60
72206;DHT22;60111;48.286;7.812;2024-01-15T02:07:26;-2.80;85.30
72206;DHT22;60111;48.286;7.812;2024-01-15T02:09:59;-2.80;85.20
72206;DHT22;60111;48.286;7.812;2024-01-15T02:12:31;-2.70;85.50
72206;DHT22;60111;48.286;7.812;2024-01-15T02:15:05;-2.70;85.30
72206;DHT22;60111;48.286;7.812;2024-01-15T02:18:02;-2.70;85.00
72206;DHT22;60111;48.286;7.812;2024-01-15T02:20:35;-2.70;85.40
72206;DHT22;60111;48.286;7.812;2024-01-15T02:23:10;-2.80;85.10
72206;DHT22;60111;48.286;7.812;2024-01-15T02:25:45;-2.80;85.40
72206;DHT22;60111;48.286;7.812;2024-01-15T02:28:17;-2.80;85.60
72206;DHT22;60111;48.286;7.812;2024-01-15T02:30:50;-2.80;85.60
72206;DHT22;60111;48.286;7.812;2024-01-15T02:33:23;-2.70;83.70
72206;DHT22;60111;48.286;7.812;2024-01-15T02:35:55;-2.70;83.60
72206;DHT22;60111;48.286;7.812;2024-01-15T02:38:28;-2.70;83.80
72206;DHT22;60111;48.286;7.812;2024-01-15T02:41:01;-2.70;83.50
72206;DHT22;60111;48.286;7.812;2024-01-15T02:43:33;-2.60;82.90
72206;DHT22;60111;48.286;7.812;2024-01-15T02:46:06;-2.60;82.50
72206;DHT22;60111;48.286;7.812;2024-01-15T02:48:38;-2.60;82.50
72206;DHT22;60111;48.286;7.812;2024-01-15T02:51:11;-2.60;82.60
72206;DHT22;60111;48.286;7.812;2024-01-15T02:53:44;-2.50;82.60
72206;DHT22;60111;48.286;7.812;2024-01-15T02:56:17;-2.50;82.60
72206;DHT22;60111;48.286;7.812;2024-01-15T02:58:49;-2.60;82.80
72206;DHT22;60111;48.286;7.812;2024-01-15T03:01:22;-2.60;82.80
72206;DHT22;60111;48.286;7.812;2024-01-15T03:03:55;-2.60;82.90
72206;DHT22;60111;48.286;7.812;2024-01-15T03:06:28;-2.70;83.00
72206;DHT22;60111;48.286;7.812;2024-01-15T03:09:00;-2.70;83.10
72206;DHT22;60111;48.286;7.812;2024-01-15T03:11:41;-2.70;83.40
72206;DHT22;60111;48.286;7.812;2024-01-15T03:14:14;-2.70;83.70
72206;DHT22;60111;48.286;7.812;2024-01-15T03:16:46;-2.70;84.00
72206;DHT22;60111;48.286;7.812;2024-01-15T03:19:19;-2.70;84.20
72206;DHT22;60111;48.286;7.812;2024-01-15T03:21:51;-2.80;84.30
72206;DHT22;60111;48.286;7.812;2024-01-15T03:24:24;-2.80;84.70
72206;DHT22;60111;48.286;7.812;2024-01-15T03:26:57;-2.70;84.80
72206;DHT22;60111;48.286;7.812;2024-01-15T03:29:29;-2.70;84.30
72206;DHT22;60111;48.286;7.812;2024-01-15T03:32:02;-2.70;84.40
72206;DHT22;60111;48.286;7.812;2024-01-15T03:34:34;-2.70;84.40
72206;DHT22;60111;48.286;7.812;2024-01-15T03:37:07;-2.60;84.30
72206;DHT22;60111;48.286;7.812;2024-01-15T03:39:40;-2.60;84.50
72206;DHT22;60111;48.286;7.812;2024-01-15T03:42:12;-2.70;84.60
72206;DHT22;60111;48.286;7.812;2024-01-15T03:44:46;-2.70;84.70
72206;DHT22;60111;48.286;7.812;2024-01-15T03:47:18;-2.60;84.00
72206;DHT22;60111;48.286;7.812;2024-01-15T03:49:51;-2.50;83.90
72206;DHT22;60111;48.286;7.812;2024-01-15T03:52:23;-2.60;84.10
72206;DHT22;60111;48.286;7.812;2024-01-15T03:54:56;-2.60;84.30
72206;DHT22;60111;48.286;7.812;2024-01-15T03:57:28;-2.60;84.00
72206;DHT22;60111;48.286;7.812;2024-01-15T04:00:01;-2.50;84.10
72206;DHT22;60111;48.286;7.812;2024-01-15T04:02:35;-2.50;83.60
72206;DHT22;60111;48.286;7.812;2024-01-15T04:05:07;-2.30;83.10
72206;DHT22;60111;48.286;7.812;2024-01-15T04:07:40;-2.30;83.00
72206;DHT22;60111;48.286;7.812;2024-01-15T04:10:12;-2.40;83.10
72206;DHT22;60111;48.286;7.812;2024-01-15T04:12:45;-2.40;83.00
72206;DHT22;60111;48.286;7.812;2024-01-15T04:15:21;-2.50;83.70
72206;DHT22;60111;48.286;7.812;2024-01-15T04:17:54;-2.50;83.90
72206;DHT22;60111;48.286;7.812;2024-01-15T04:20:26;-2.50;83.80
72206;DHT22;60111;48.286;7.812;2024-01-15T04:22:59;-2.50;84.20
72206;DHT22;60111;48.286;7.812;2024-01-15T04:25:31;-2.50;84.10
72206;DHT22;60111;48.286;7.812;2024-01-15T04:28:04;-2.50;84.20
72206;DHT22;60111;48.286;7.812;2024-01-15T04:30:37;-2.60;84.50
72206;DHT22;60111;48.286;7.812;2024-01-15T04:33:09;-2.60;84.60
72206;DHT22;60111;48.286;7.812;2024-01-15T04:35:42;-2.60;84.80
72206;DHT22;60111;48.286;7.812;2024-01-15T04:38:16;-2.60;84.70
72206;DHT22;60111;48.286;7.812;2024-01-15T04:40:49;-2.70;85.10
72206;DHT22;60111;48.286;7.812;2024-01-15T04:43:21;-2.70;85.40
72206;DHT22;60111;48.286;7.812;2024-01-15T04:45:54;-2.70;85.70
72206;DHT22;60111;48.286;7.812;2024-01-15T04:48:26;-2.60;85.80
72206;DHT22;60111;48.286;7.812;2024-01-15T04:50:59;-2.50;84.90
72206;DHT22;60111;48.286;7.812;2024-01-15T04:53:33;-2.40;84.10
72206;DHT22;60111;48.286;7.812;2024-01-15T04:56:05;-2.50;84.40
72206;DHT22;60111;48.286;7.812;2024-01-15T04:58:39;-2.50;84.60
72206;DHT22;60111;48.286;7.812;2024-01-15T05:01:11;-2.40;85.10
72206;DHT22;60111;48.286;7.812;2024-01-15T05:03:44;-2.20;84.70
72206;DHT22;60111;48.286;7.812;2024-01-15T05:06:16;-2.10;84.30
72206;DHT22;60111;48.286;7.812;2024-01-15T05:08:49;-2.00;84.30
72206;DHT22;60111;48.286;7.812;2024-01-15T05:11:21;-1.80;83.80
72206;DHT22;60111;48.286;7.812;2024-01-15T05:13:54;-1.80;83.70
72206;DHT22;60111;48.286;7.812;2024-01-15T05:16:26;-1.70;83.60
72206;DHT22;60111;48.286;7.812;2024-01-15T05:18:59;-1.60;83.30
72206;DHT22;60111;48.286;7.812;2024-01-15T05:21:32;-1.60;83.40
72206;DHT22;60111;48.286;7.812;2024-01-15T05:24:04;-1.60;83.20
72206;DHT22;60111;48.286;7.812;2024-01-15T05:26:37;-1.50;83.60
72206;DHT22;60111;48.286;7.812;2024-01-15T05:29:09;-1.40;83.10
72206;DHT22;60111;48.286;7.812;2024-01-15T05:31:42;-1.30;82.60
72206;DHT22;60111;48.286;7.812;2024-01-15T05:34:15;-1.20;82.30
72206;DHT22;60111;48.286;7.812;2024-01-15T05:36:47;-1.20;81.70
72206;DHT22;60111;48.286;7.812;2024-01-15T05:39:20;-1.30;81.10
72206;DHT22;60111;48.286;7.812;2024-01-15T05:41:53;-1.30;81.60
72206;DHT22;60111;48.286;7.812;2024-01-15T05:44:25;-1.30;82.20
72206;DHT22;60111;48.286;7.812;2024-01-15T05:46:58;-1.40;82.30
72206;DHT22;60111;48.286;7.812;2024-01-15T05:49:30;-1.40;83.00
72206;DHT22;60111;48.286;7.812;2024-01-15T05:52:03;-1.30;82.50
72206;DHT22;60111;48.286;7.812;2024-01-15T05:54:36;-1.30;82.30
72206;DHT22;60111;48.286;7.812;2024-01-15T05:57:09;-1.20;82.40
72206;DHT22;60111;48.286;7.812;2024-01-15T05:59:42;-1.20;81.90
72206;DHT22;60111;48.286;7.812;2024-01-15T06:02:15;-1.20;82.00
72206;DHT22;60111;48.286;7.812;2024-01-15T06:04:47;-1.10;81.70
72206;DHT22;60111;48.286;7.812;2024-01-15T06:07:20;-1.00;81.30
72206;DHT22;60111;48.286;7.812;2024-01-15T06:09:53;-1.10;81.40
72206;DHT22;60111;48.286;7.812;2024-01-15T06:12:26;-1.00;80.90
72206;DHT22;60111;48.286;7.812;2024-01-15T06:14:59;-0.90;81.00
72206;DHT22;60111;48.286;7.812;2024-01-15T06:17:33;-0.90;80.60
72206;DHT22;60111;48.286;7.812;2024-01-15T06:20:07;-0.90;80.70
72206;DHT22;60111;48.286;7.812;2024-01-15T06:22:40;-0.90;80.60
72206;DHT22;60111;48.286;7.812;2024-01-15T06:25:13;-0.90;80.10
72206;DHT22;60111;48.286;7.812;2024-01-15T06:27:45;-1.00;81.20
72206;DHT22;60111;48.286;7.812;2024-01-15T06:30:18;-0.90;80.80
72206;DHT22;60111;48.286;7.812;2024-01-15T06:32:51;-0.90;80.40
72206;DHT22;60111;48.286;7.812;2024-01-15T06:35:23;-0.90;80.80
72206;DHT22;60111;48.286;7.812;2024-01-15T06:37:56;-0.80;80.50
72206;DHT22;60111;48.286;7.812;2024-01-15T06:40:28;-0.90;80.70
72206;DHT22;60111;48.286;7.812;2024-01-15T06:43:01;-0.90;81.20
72206;DHT22;60111;48.286;7.812;2024-01-15T06:45:34;-0.80;81.30
72206;DHT22;60111;48.286;7.812;2024-01-15T06:48:07;-0.80;80.70
72206;DHT22;60111;48.286;7.812;2024-01-15T06:50:40;-0.90;81.50
72206;DHT22;60111;48.286;7.812;2024-01-15T06:53:13;-0.90;81.60
72206;DHT22;60111;48.286;7.812;2024-01-15T06:55:45;-0.80;81.30
72206;DHT22;60111;48.286;7.812;2024-01-15T06:58:18;-0.90;81.40
72206;DHT22;60111;48.286;7.812;2024-01-15T07:00:51;-0.90;81.80
72206;DHT22;60111;48.286;7.812;2024-01-15T07:03:23;-0.90;82.10
72206;DHT22;60111;48.286;7.812;2024-01-15T07:05:56;-0.80;82.10
72206;DHT22;60111;48.286;7.812;2024-01-15T07:08:29;-0.80;81.60
72206;DHT22;60111;48.286;7.812;2024-01-15T07:11:03;-0.70;81.70
72206;DHT22;60111;48.286;7.812;2024-01-15T07:13:36;-0.70;81.70
72206;DHT22;60111;48.286;7.812;2024-01-15T07:16:09;-0.60;81.60
72206;DHT22;60111;48.286;7.812;2024-01-15T07:18:42;-0.60;81.20
72206;DHT22;60111;48.286;7.812;2024-01-15T07:21:15;-0.60;81.20
72206;DHT22;60111;48.286;7.812;2024-01-15T07:23:47;-0.60;81.20
72206;DHT22;60111;48.286;7.812;2024-01-15T07:26:20;-0.60;81.40
72206;DHT22;60111;48.286;7.812;2024-01-15T07:28:53;-0.60;81.10
72206;DHT22;60111;48.286;7.812;2024-01-15T07:31:26;-0.60;81.60
72206;DHT22;60111;48.286;7.812;2024-01-15T07:33:59;-0.60;82.00
72206;DHT22;60111;48.286;7.812;2024-01-15T07:36:32;-0.60;81.90
72206;DHT22;60111;48.286;7.812;2024-01-15T07:39:04;-0.60;81.70
72206;DHT22;60111;48.286;7.812;2024-01-15T07:41:37;-0.60;81.80
72206;DHT22;60111;48.286;7.812;2024-01-15T07:44:10;-0.50;81.40
72206;DHT22;60111;48.286;7.812;2024-01-15T07:46:46;-0.50;81.00
72206;DHT22;60111;48.286;7.812;2024-01-15T07:49:19;-0.50;81.20
72206;DHT22;60111;48.286;7.812;2024-01-15T07:51:52;-0.50;81.40
72206;DHT22;60111;48.286;7.812;2024-01-15T07:54:25;-0.40;81.40
72206;DHT22;60111;48.286;7.812;2024-01-15T07:56:59;-0.40;81.40
72206;DHT22;60111;48.286;7.812;2024-01-15T07:59:31;-0.40;81.20
72206;DHT22;60111;48.286;7.812;2024-01-15T08:02:03;-0.40;80.90
72206;DHT22;60111;48.286;7.812;2024-01-15T08:04:37;-0.50;81.60
72206;DHT22;60111;48.286;7.812;2024-01-15T08:07:10;-0.40;81.40
72206;DHT22;60111;48.286;7.812;2024-01-15T08:09:42;-0.40;81.10
72206;DHT22;60111;48.286;7.812;2024-01-15T08:12:15;-0.40;81.10
72206;DHT22;60111;48.286;7.812;2024-01-15T08:14:48;-0.40;81.00
72206;DHT22;60111;48.286;7.812;2024-01-15T08:17:20;-0.30;81.00
72206;DHT22;60111;48.286;7.812;2024-01-15T08:19:53;-0.40;81.20
72206;DHT22;60111;48.286;7.812;2024-01-15T08:22:26;-0.30;80.90
72206;DHT22;60111;48.286;7.812;2024-01-15T08:24:59;-0.30;80.90
72206;DHT22;60111;48.286;7.812;2024-01-15T08:27:31;-0.30;80.90
72206;DHT22;60111;48.286;7.812;2024-01-15T08:30:05;-0.30;81.10
72206;DHT22;60111;48.286;7.812;2024-01-15T08:32:37;-0.30;80.70
72206;DHT22;60111;48.286;7.812;2024-01-15T08:35:12;-0.30;80.70
72206;DHT22;60111;48.286;7.812;2024-01-15T08:37:44;-0.30;80.90
72206;DHT22;60111;48.286;7.812;2024-01-15T08:40:17;-0.30;80.70
72206;DHT22;60111;48.286;7.812;2024-01-15T08:42:50;-0.20;80.40
72206;DHT22;60111;48.286;7.812;2024-01-15T08:45:23;-0.20;80.20
72206;DHT22;60111;48.286;7.812;2024-01-15T08:47:55;-0.30;80.10
72206;DHT22;60111;48.286;7.812;2024-01-15T08:50:28;-0.30;80.40
72206;DHT22;60111;48.286;7.812;2024-01-15T08:53:02;-0.30;80.70
72206;DHT22;60111;48.286;7.812;2024-01-15T08:55:35;-0.20;80.70
72206;DHT22;60111;48.286;7.812;2024-01-15T08:58:07;-0.20;80.80
72206;DHT22;60111;48.286;7.812;2024-01-15T09:00:40;-0.20;80.60
72206;DHT22;60111;48.286;7.812;2024-01-15T09:03:13;-0.20;80.70
72206;DHT22;60111;48.286;7.812;2024-01-15T09:05:46;-0.20;81.00
72206;DHT22;60111;48.286;7.812;2024-01-15T09:08:20;-0.20;80.50
72206;DHT22;60111;48.286;7.812;2024-01-15T09:10:53;-0.20;80.40
72206;DHT22;60111;48.286;7.812;2024-01-15T09:13:25;-0.10;80.60
72206;DHT22;60111;48.286;7.812;2024-01-15T09:15:58;0.00;80.40
72206;DHT22;60111;48.286;7.812;2024-01-15T09:18:31;0.10;80.30
72206;DHT22;60111;48.286;7.812;2024-01-15T09:21:04;0.10;79.50
72206;DHT22;60111;48.286;7.812;2024-01-15T09:23:37;0.20;79.70
72206;DHT22;60111;48.286;7.812;2024-01-15T09:26:10;0.20;79.70
72206;DHT22;60111;48.286;7.812;2024-01-15T09:28:44;0.20;80.00
72206;DHT22;60111;48.286;7.812;2024-01-15T09:31:16;0.20;80.00
72206;DHT22;60111;48.286;7.812;2024-01-15T09:33:50;0.30;80.10
72206;DHT22;60111;48.286;7.812;2024-01-15T09:36:24;0.30;80.30
72206;DHT22;60111;48.286;7.812;2024-01-15T09:38:57;0.40;80.00
72206;DHT22;60111;48.286;7.812;2024-01-15T09:41:29;0.40;79.80
72206;DHT22;60111;48.286;7.812;2024-01-15T09:44:03;0.40;79.50
72206;DHT22;60111;48.286;7.812;2024-01-15T09:46:36;0.30;80.00
72206;DHT22;60111;48.286;7.812;2024-01-15T09:49:10;0.30;79.70
72206;DHT22;60111;48.286;7.812;2024-01-15T09:51:44;0.30;80.00
72206;DHT22;60111;48.286;7.812;2024-01-15T09:54:17;0.40;80.00
72206;DHT22;60111;48.286;7.812;2024-01-15T09:56:50;0.40;79.80
72206;DHT22;60111;48.286;7.812;2024-01-15T09:59:24;0.40;79.50
72206;DHT22;60111;48.286;7.812;2024-01-15T10:01:59;0.40;79.60
72206;DHT22;60111;48.286;7.812;2024-01-15T10:04:33;0.50;79.30
72206;DHT22;60111;48.286;7.812;2024-01-15T10:07:07;0.60;78.80
72206;DHT22;60111;48.286;7.812;2024-01-15T10:09:40;0.60;78.90
72206;DHT22;60111;48.286;7.812;2024-01-15T10:12:13;0.70;78.60
72206;DHT22;60111;48.286;7.812;2024-01-15T10:14:46;0.70;78.90
72206;DHT22;60111;48.286;7.812;2024-01-15T10:17:21;0.70;78.90
72206;DHT22;60111;48.286;7.812;2024-01-15T10:19:54;0.70;78.70
72206;DHT22;60111;48.286;7.812;2024-01-15T10:22:26;0.80;78.70
72206;DHT22;60111;48.286;7.812;2024-01-15T10:24:59;0.70;78.60
72206;DHT22;60111;48.286;7.812;2024-01-15T10:27:32;0.80;78.10
72206;DHT22;60111;48.286;7.812;2024-01-15T10:30:06;0.90;78.10
72206;DHT22;60111;48.286;7.812;2024-01-15T10:32:39;0.90;77.60
72206;DHT22;60111;48.286;7.812;2024-01-15T10:35:12;0.90;77.70
72206;DHT22;60111;48.286;7.812;2024-01-15T10:37:45;0.90;77.60
72206;DHT22;60111;48.286;7.812;2024-01-15T10:40:19;0.90;78.00
72206;DHT22;60111;48.286;7.812;2024-01-15T10:42:52;0.90;77.90
72206;DHT22;60111;48.286;7.812;2024-01-15T10:45:25;1.00;78.20
72206;DHT22;60111;48.286;7.812;2024-01-15T10:47:57;1.00;78.10
72206;DHT22;60111;48.286;7.812;2024-01-15T10:50:32;1.00;78.20
72206;DHT22;60111;48.286;7.812;2024-01-15T10:53:05;0.90;78.60
72206;DHT22;60111;48.286;7.812;2024-01-15T10:55:38;1.00;78.40
72206;DHT22;60111;48.286;7.812;2024-01-15T10:58:15;1.00;78.10
72206;DHT22;60111;48.286;7.812;2024-01-15T11:00:49;1.10;77.10
72206;DHT22;60111;48.286;7.812;2024-01-15T11:03:22;1.20;76.80
72206;DHT22;60111;48.286;7.812;2024-01-15T11:05:56;1.20;76.10
72206;DHT22;60111;48.286;7.812;2024-01-15T11:08:29;1.30;74.70
72206;DHT22;60111;48.286;7.812;2024-01-15T11:11:03;1.30;74.60
72206;DHT22;60111;48.286;7.812;2024-01-15T11:13:40;1.30;74.40
72206;DHT22;60111;48.286;7.812;2024-01-15T11:16:15;1.30;75.00
72206;DHT22;60111;48.286;7.812;2024-01-15T11:21:32;1.40;74.40
72206;DHT22;60111;48.286;7.812;2024-01-15T11:24:06;1.40;74.70
72206;DHT22;60111;48.286;7.812;2024-01-15T11:26:47;1.40;75.00
72206;DHT22;60111;48.286;7.812;2024-01-15T11:29:31;1.40;74.60
72206;DHT22;60111;48.286;7.812;2024-01-15T11:32:06;1.40;75.10
72206;DHT22;60111;48.286;7.812;2024-01-15T11:34:54;1.40;75.50
72206;DHT22;60111;48.286;7.812;2024-01-15T11:43:10;1.40;75.50
72206;DHT22;60111;48.286;7.812;2024-01-15T11:45:44;1.40;75.30
72206;DHT22;60111;48.286;7.812;2024-01-15T11:48:17;1.50;75.00
72206;DHT22;60111;48.286;7.812;2024-01-15T11:50:50;1.50;73.70
72206;DHT22;60111;48.286;7.812;2024-01-15T11:53:40;1.60;73.70
72206;DHT22;60111;48.286;7.812;2024-01-15T11:56:15;1.70;73.00
72206;DHT22;60111;48.286;7.812;2024-01-15T11:58:48;1.70;72.50
72206;DHT22;60111;48.286;7.812;2024-01-15T12:01:22;1.80;72.70
72206;DHT22;60111;48.286;7.812;2024-01-15T12:03:55;1.70;72.80
72206;DHT22;60111;48.286;7.812;2024-01-15T12:06:28;1.80;72.60
72206;DHT22;60111;48.286;7.812;2024-01-15T12:09:11;1.80;72.60
72206;DHT22;60111;48.286;7.812;2024-01-15T12:11:46;1.80;72.80
72206;DHT22;60111;48.286;7.812;2024-01-15T12:14:21;1.80;73.00
72206;DHT22;60111;48.286;7.812;2024-01-15T12:16:54;1.80;73.30
72206;DHT22;60111;48.286;7.812;2024-01-15T12:19:27;1.80;73.40
72206;DHT22;60111;48.286;7.812;2024-01-15T12:22:00;1.80;72.90
72206;DHT22;60111;48.286;7.812;2024-01-15T12:24:33;1.80;73.00
72206;DHT22;60111;48.286;7.812;2024-01-15T12:27:07;1.80;73.00
72206;DHT22;60111;48.286;7.812;2024-01-15T12:29:40;1.80;72.90
72206;DHT22;60111;48.286;7.812;2024-01-15T12:32:13;1.80;73.40
72206;DHT22;60111;48.286;7.812;2024-01-15T12:34:45;1.80;73.70
72206;DHT22;60111;48.286;7.812;2024-01-15T12:37:21;1.70;74.20
72206;DHT22;60111;48.286;7.812;2024-01-15T12:39:54;1.70;74.50
72206;DHT22;60111;48.286;7.812;2024-01-15T12:42:29;1.70;74.60
72206;DHT22;60111;48.286;7.812;2024-01-15T12:45:02;1.60;75.10
72206;DHT22;60111;48.286;7.812;2024-01-15T12:47:36;1.60;75.50
72206;DHT22;60111;48.286;7.812;2024-01-15T12:50:11;1.60;75.10
72206;DHT22;60111;48.286;7.812;2024-01-15T12:52:44;1.70;75.00
72206;DHT22;60111;48.286;7.812;2024-01-15T12:55:16;1.80;74.00
72206;DHT22;60111;48.286;7.812;2024-01-15T12:57:50;1.80;74.90
72206;DHT22;60111;48.286;7.812;2024-01-15T13:00:24;1.70;75.90
72206;DHT22;60111;48.286;7.812;2024-01-15T13:02:57;1.70;76.20
72206;DHT22;60111;48.286;7.812;2024-01-15T13:05:32;1.60;77.30
72206;DHT22;60111;48.286;7.812;2024-01-15T13:08:05;1.50;78.90
72206;DHT22;60111;48.286;7.812;2024-01-15T13:10:38;1.40;80.20
72206;DHT22;60111;48.286;7.812;2024-01-15T13:13:13;1.30;81.00
72206;DHT22;60111;48.286;7.812;2024-01-15T13:15:45;1.30;81.80
72206;DHT22;60111;48.286;7.812;2024-01-15T13:18:18;1.20;82.30
72206;DHT22;60111;48.286;7.812;2024-01-15T13:20:50;1.20;82.80
72206;DHT22;60111;48.286;7.812;2024-01-15T13:23:23;1.10;83.20
72206;DHT22;60111;48.286;7.812;2024-01-15T13:25:56;1.10;84.00
72206;DHT22;60111;48.286;7.812;2024-01-15T13:28:29;1.00;84.30
72206;DHT22;60111;48.286;7.812;2024-01-15T13:31:02;1.00;84.80
72206;DHT22;60111;48.286;7.812;2024-01-15T13:33:36;1.10;84.60
72206;DHT22;60111;48.286;7.812;2024-01-15T13:36:08;1.10;84.70
72206;DHT22;60111;48.286;7.812;2024-01-15T13:38:42;1.10;84.60
72206;DHT22;60111;48.286;7.812;2024-01-15T13:41:15;1.10;84.70
72206;DHT22;60111;48.286;7.812;2024-01-15T13:43:51;1.20;84.60
72206;DHT22;60111;48.286;7.812;2024-01-15T13:46:25;1.10;84.70
72206;DHT22;60111;48.286;7.812;2024-01-15T13:49:02;1.20;84.30
72206;DHT22;60111;48.286;7.812;2024-01-15T13:51:36;1.10;84.20
72206;DHT22;60111;48.286;7.812;2024-01-15T13:54:10;1.20;84.10
72206;DHT22;60111;48.286;7.812;2024-01-15T13:56:42;1.20;83.80
72206;DHT22;60111;48.286;7.812;2024-01-15T13:59:16;1.20;83.80
72206;DHT22;60111;48.286;7.812;2024-01-15T14:01:48;1.20;83.90
72206;DHT22;60111;48.286;7.812;2024-01-15T14:04:21;1.20;84.30
72206;DHT22;60111;48.286;7.812;2024-01-15T14:06:54;1.10;84.30
72206;DHT22;60111;48.286;7.812;2024-01-15T14:09:26;1.10;84.40
72206;DHT22;60111;48.286;7.812;2024-01-15T14:11:59;1.20;84.40
72206;DHT22;60111;48.286;7.812;2024-01-15T14:14:32;1.20;84.40
72206;DHT22;60111;48.286;7.812;2024-01-15T14:17:04;1.20;84.70
72206;DHT22;60111;48.286;7.812;2024-01-15T14:19:37;1.20;84.50
72206;DHT22;60111;48.286;7.812;2024-01-15T14:22:10;1.20;84.50
72206;DHT22;60111;48.286;7.812;2024-01-15T14:24:43;1.20;84.10
72206;DHT22;60111;48.286;7.812;2024-01-15T14:27:15;1.20;83.70
72206;DHT22;60111;48.286;7.812;2024-01-15T14:29:48;1.30;83.70
72206;DHT22;60111;48.286;7.812;2024-01-15T14:32:20;1.30;83.30
72206;DHT22;60111;48.286;7.812;2024-01-15T14:34:53;1.20;83.50
72206;DHT22;60111;48.286;7.812;2024-01-15T14:37:26;1.30;83.70
72206;DHT22;60111;48.286;7.812;2024-01-15T14:39:58;1.30;83.10
72206;DHT22;60111;48.286;7.812;2024-01-15T14:42:31;1.40;82.90
72206;DHT22;60111;48.286;7.812;2024-01-15T14:45:05;1.40;82.80
72206;DHT22;60111;48.286;7.812;2024-01-15T14:47:40;1.40;82.60
72206;DHT22;60111;48.286;7.812;2024-01-15T14:50:13;1.40;82.80
72206;DHT22;60111;48.286;7.812;2024-01-15T14:52:46;1.40;83.00
72206;DHT22;60111;48.286;7.812;2024-01-15T14:55:19;1.40;82.30
72206;DHT22;60111;48.286;7.812;2024-01-15T14:57:52;1.50;82.60
72206;DHT22;60111;48.286;7.812;2024-01-15T15:00:26;1.50;82.30
72206;DHT22;60111;48.286;7.812;2024-01-15T15:02:58;1.50;82.00
72206;DHT22;60111;48.286;7.812;2024-01-15T15:05:31;1.50;82.30
72206;DHT22;60111;48.286;7.812;2024-01-15T15:08:04;1.50;82.10
72206;DHT22;60111;48.286;7.812;2024-01-15T15:10:38;1.50;82.50
72206;DHT22;60111;48.286;7.812;2024-01-15T15:13:12;1.50;82.60
72206;DHT22;60111;48.286;7.812;2024-01-15T15:15:45;1.50;82.50
72206;DHT22;60111;48.286;7.812;2024-01-15T15:18:18;1.40;82.50
72206;DHT22;60111;48.286;7.812;2024-01-15T15:20:50;1.40;82.80
72206;DHT22;60111;48.286;7.812;2024-01-15T15:23:23;1.40;82.40
72206;DHT22;60111;48.286;7.812;2024-01-15T15:26:03;1.40;82.90
72206;DHT22;60111;48.286;7.812;2024-01-15T15:28:36;1.40;82.70
72206;DHT22;60111;48.286;7.812;2024-01-15T15:31:09;1.50;82.60
72206;DHT22;60111;48.286;7.812;2024-01-15T15:33:43;1.40;82.30
72206;DHT22;60111;48.286;7.812;2024-01-15T15:36:16;1.40;82.40
72206;DHT22;60111;48.286;7.812;2024-01-15T15:38:50;1.40;82.30
72206;DHT22;60111;48.286;7.812;2024-01-15T15:41:23;1.50;82.10
72206;DHT22;60111;48.286;7.812;2024-01-15T15:43:57;1.50;82.00
72206;DHT22;60111;48.286;7.812;2024-01-15T15:46:30;1.40;82.20
72206;DHT22;60111;48.286;7.812;2024-01-15T15:49:02;1.40;82.00
72206;DHT22;60111;48.286;7.812;2024-01-15T15:51:36;1.40;82.10
72206;DHT22;60111;48.286;7.812;2024-01-15T15:54:10;1.40;81.70
72206;DHT22;60111;48.286;7.812;2024-01-15T15:56:43;1.40;81.00
72206;DHT22;60111;48.286;7.812;2024-01-15T15:59:17;1.40;78.70
72206;DHT22;60111;48.286;7.812;2024-01-15T16:01:50;1.40;78.10
72206;DHT22;60111;48.286;7.812;2024-01-15T16:04:23;1.50;77.70
72206;DHT22;60111;48.286;7.812;2024-01-15T16:06:56;1.50;76.70
72206;DHT22;60111;48.286;7.812;2024-01-15T16:09:30;1.50;75.50
72206;DHT22;60111;48.286;7.812;2024-01-15T16:12:03;1.40;75.70
72206;DHT22;60111;48.286;7.812;2024-01-15T16:14:36;1.40;75.90
72206;DHT22;60111;48.286;7.812;2024-01-15T16:17:08;1.30;76.30
72206;DHT22;60111;48.286;7.812;2024-01-15T16:19:41;1.20;76.50
72206;DHT22;60111;48.286;7.812;2024-01-15T16:22:13;1.20;76.50
72206;DHT22;60111;48.286;7.812;2024-01-15T16:24:46;1.10;77.00